createdAt,value
2023-06-28T00:01:14.686Z,19.07
2023-06-28T00:03:41.602Z,19.07
2023-06-28T00:06:08.687Z,18.95
2023-06-28T00:08:35.277Z,19.02
2023-06-28T00:11:01.935Z,18.93
2023-06-28T00:13:28.698Z,18.88
2023-06-28T00:15:55.255Z,18.86
2023-06-28T00:18:23.237Z,18.81
2023-06-28T00:20:49.852Z,18.77
2023-06-28T00:23:16.562Z,18.68
2023-06-28T00:25:43.142Z,18.68
2023-06-28T00:28:09.762Z,18.56
2023-06-28T00:30:36.350Z,18.50
2023-06-28T00:33:03.193Z,18.49
2023-06-28T00:35:31.309Z,18.54
2023-06-28T00:37:57.936Z,18.56
2023-06-28T00:40:24.602Z,18.51
2023-06-28T00:42:51.468Z,18.48
2023-06-28T00:45:18.037Z,18.38
2023-06-28T00:47:44.956Z,18.31
2023-06-28T00:50:12.056Z,18.23
2023-06-28T00:52:40.069Z,18.16
2023-06-28T00:55:07.185Z,18.12
2023-06-28T00:57:34.016Z,18.06
2023-06-28T01:00:01.363Z,18.02
2023-06-28T01:02:28.230Z,18.00
2023-06-28T01:04:55.069Z,17.92
2023-06-28T01:07:22.084Z,17.90
2023-06-28T01:09:50.666Z,17.93
2023-06-28T01:12:17.538Z,17.92
2023-06-28T01:14:44.181Z,17.91
2023-06-28T01:17:10.960Z,17.86
2023-06-28T01:19:37.596Z,17.80
2023-06-28T01:22:05.860Z,17.75
2023-06-28T01:24:34.120Z,17.73
2023-06-28T01:27:01.230Z,17.63
2023-06-28T01:29:27.987Z,17.63
2023-06-28T01:31:56.214Z,17.59
2023-06-28T01:34:23.078Z,17.45
2023-06-28T01:36:51.697Z,17.42
2023-06-28T01:39:19.407Z,17.37
2023-06-28T01:41:50.305Z,17.38
2023-06-28T01:44:17.643Z,17.34
2023-06-28T01:46:45.039Z,17.33
2023-06-28T01:49:11.823Z,17.28
2023-06-28T01:51:38.782Z,17.26
2023-06-28T01:54:05.631Z,17.17
2023-06-28T01:56:32.766Z,17.14
2023-06-28T01:59:00.776Z,17.10
2023-06-28T02:01:27.949Z,17.08
2023-06-28T02:03:54.669Z,17.09
2023-06-28T02:06:21.433Z,17.06
2023-06-28T02:08:48.017Z,17.04
2023-06-28T02:11:14.764Z,17.07
2023-06-28T02:13:41.430Z,17.09
2023-06-28T02:16:09.517Z,17.18
2023-06-28T02:18:36.175Z,17.18
2023-06-28T02:21:02.989Z,17.13
2023-06-28T02:23:29.592Z,17.19
2023-06-28T02:25:58.832Z,17.13
2023-06-28T02:28:25.851Z,17.17
2023-06-28T02:30:52.481Z,17.17
2023-06-28T02:33:20.478Z,17.17
2023-06-28T02:35:47.097Z,17.20
2023-06-28T02:38:13.856Z,17.25
2023-06-28T02:40:40.768Z,17.28
2023-06-28T02:43:07.483Z,17.27
2023-06-28T02:45:34.253Z,17.24
2023-06-28T02:48:00.934Z,17.30
2023-06-28T02:50:28.952Z,17.28
2023-06-28T02:52:55.715Z,17.20
2023-06-28T02:55:22.299Z,17.20
2023-06-28T02:57:48.997Z,17.19
2023-06-28T03:00:16.202Z,17.05
2023-06-28T03:02:42.923Z,16.96
2023-06-28T03:05:09.593Z,16.91
2023-06-28T03:07:37.609Z,16.99
2023-06-28T03:10:05.107Z,16.97
2023-06-28T03:12:31.776Z,17.01
2023-06-28T03:14:58.593Z,17.01
2023-06-28T03:17:25.752Z,17.09
2023-06-28T03:19:52.493Z,17.11
2023-06-28T03:22:19.315Z,17.22
2023-06-28T03:24:47.637Z,17.30
2023-06-28T03:27:14.241Z,17.39
2023-06-28T03:29:40.985Z,17.53
2023-06-28T03:32:09.196Z,17.63
2023-06-28T03:34:35.840Z,17.73
2023-06-28T03:37:05.008Z,17.83
2023-06-28T03:39:32.240Z,17.77
2023-06-28T03:42:00.223Z,17.85
2023-06-28T03:44:26.954Z,17.86
2023-06-28T03:46:53.567Z,17.88
2023-06-28T03:49:20.669Z,17.93
2023-06-28T03:51:47.404Z,17.98
2023-06-28T03:54:13.990Z,17.97
2023-06-28T03:56:40.835Z,18.00
2023-06-28T03:59:08.826Z,17.93
2023-06-28T04:01:35.633Z,17.95
2023-06-28T04:04:02.356Z,17.92
2023-06-28T04:06:28.989Z,17.84
2023-06-28T04:08:55.578Z,17.93
2023-06-28T04:11:22.172Z,17.99
2023-06-28T04:13:54.915Z,18.17
2023-06-28T04:16:22.996Z,18.26
2023-06-28T04:18:49.586Z,18.43
2023-06-28T04:21:16.193Z,18.68
2023-06-28T04:23:42.895Z,19.12
2023-06-28T04:26:09.483Z,19.50
2023-06-28T04:28:36.055Z,19.56
2023-06-28T04:31:02.933Z,19.44
2023-06-28T04:33:30.969Z,19.62
2023-06-28T04:35:57.615Z,20.16
2023-06-28T04:38:24.402Z,20.41
2023-06-28T04:40:51.015Z,20.43
2023-06-28T04:43:17.610Z,20.51
2023-06-28T04:45:44.342Z,20.71
2023-06-28T04:48:10.960Z,20.70
2023-06-28T04:50:39.258Z,20.76
2023-06-28T04:53:06.705Z,20.90
2023-06-28T04:55:34.250Z,21.33
2023-06-28T04:58:01.454Z,21.54
2023-06-28T05:00:28.142Z,21.71
2023-06-28T05:02:54.993Z,22.00
2023-06-28T05:05:21.656Z,22.28
2023-06-28T05:07:49.762Z,22.48
2023-06-28T05:10:16.391Z,23.07
2023-06-28T05:12:43.205Z,22.91
2023-06-28T05:15:10.793Z,22.53
2023-06-28T05:17:37.471Z,22.12
2023-06-28T05:20:05.300Z,22.00
2023-06-28T05:22:31.937Z,21.85
2023-06-28T05:24:59.894Z,21.77
2023-06-28T05:27:26.769Z,21.69
2023-06-28T05:29:53.388Z,21.55
2023-06-28T05:32:20.029Z,21.37
2023-06-28T05:34:46.675Z,21.25
2023-06-28T05:37:13.277Z,21.19
2023-06-28T05:39:40.115Z,21.10
2023-06-28T05:42:08.437Z,20.88
2023-06-28T05:44:35.008Z,20.95
2023-06-28T05:47:01.753Z,20.92
2023-06-28T05:49:28.331Z,20.89
2023-06-28T05:51:55.217Z,20.94
2023-06-28T05:54:21.824Z,20.91
2023-06-28T05:56:48.475Z,20.90
2023-06-28T05:59:16.422Z,20.96
2023-06-28T06:01:43.074Z,21.02
2023-06-28T06:04:09.767Z,20.87
2023-06-28T06:06:36.713Z,20.94
2023-06-28T06:09:03.327Z,20.87
2023-06-28T06:11:29.932Z,20.82
2023-06-28T06:13:56.653Z,20.90
2023-06-28T06:16:25.286Z,20.97
2023-06-28T06:18:51.908Z,21.08
2023-06-28T06:21:19.111Z,21.08
2023-06-28T06:23:46.085Z,20.91
2023-06-28T06:26:12.960Z,20.92
2023-06-28T06:28:39.599Z,20.95
2023-06-28T06:31:06.241Z,20.89
2023-06-28T06:33:34.528Z,20.93
2023-06-28T06:36:01.148Z,20.98
2023-06-28T06:38:27.728Z,21.13
2023-06-28T06:40:54.440Z,21.18
2023-06-28T06:43:21.082Z,21.15
2023-06-28T06:45:48.301Z,21.25
2023-06-28T06:48:14.950Z,21.41
2023-06-28T06:50:43.464Z,21.37
2023-06-28T06:53:10.328Z,21.61
2023-06-28T06:55:36.959Z,21.78
2023-06-28T06:58:03.550Z,21.95
2023-06-28T07:00:30.153Z,22.22
2023-06-28T07:02:56.895Z,22.52
2023-06-28T07:05:23.567Z,22.76
2023-06-28T07:07:51.551Z,22.92
2023-06-28T07:10:18.318Z,22.81
2023-06-28T07:12:47.751Z,22.71
2023-06-28T07:15:14.383Z,22.90
2023-06-28T07:17:41.517Z,23.12
2023-06-28T07:20:09.228Z,23.08
2023-06-28T07:22:35.699Z,23.09
2023-06-28T07:25:04.116Z,23.23
2023-06-28T07:27:30.794Z,23.42
2023-06-28T07:29:57.429Z,23.50
2023-06-28T07:32:24.227Z,23.46
2023-06-28T07:34:51.038Z,23.55
2023-06-28T07:37:17.635Z,23.25
2023-06-28T07:39:44.242Z,23.29
2023-06-28T07:42:12.301Z,23.42
2023-06-28T07:44:38.920Z,23.60
2023-06-28T07:47:05.712Z,23.78
2023-06-28T07:49:32.469Z,23.77
2023-06-28T07:51:59.327Z,23.61
2023-06-28T07:54:34.067Z,23.49
2023-06-28T07:57:01.532Z,23.37
2023-06-28T07:59:29.452Z,23.12
2023-06-28T08:01:56.360Z,22.98
2023-06-28T08:04:23.095Z,22.82
2023-06-28T08:06:49.853Z,22.61
2023-06-28T08:09:16.776Z,22.71
2023-06-28T08:11:43.565Z,22.80
2023-06-28T08:14:10.278Z,22.98
2023-06-28T08:16:38.460Z,23.27
2023-06-28T08:19:05.084Z,23.25
2023-06-28T08:21:31.716Z,23.33
2023-06-28T08:23:58.465Z,23.36
2023-06-28T08:26:25.120Z,23.41
2023-06-28T08:29:00.513Z,23.56
2023-06-28T08:31:27.752Z,23.68
2023-06-28T08:33:56.760Z,23.58
2023-06-28T08:36:23.371Z,23.47
2023-06-28T08:38:49.973Z,23.22
2023-06-28T08:41:18.945Z,23.21
2023-06-28T08:43:48.939Z,23.20
2023-06-28T08:46:15.692Z,23.27
2023-06-28T08:48:42.881Z,23.32
2023-06-28T08:51:11.023Z,23.31
2023-06-28T08:53:38.701Z,23.12
2023-06-28T08:56:05.879Z,23.15
2023-06-28T08:58:34.154Z,23.16
2023-06-28T09:01:01.583Z,23.04
2023-06-28T09:03:29.592Z,22.98
2023-06-28T09:05:56.996Z,22.99
2023-06-28T09:08:26.175Z,22.79
2023-06-28T09:10:52.893Z,22.89
2023-06-28T09:13:19.639Z,22.98
2023-06-28T09:15:46.676Z,22.97
2023-06-28T09:18:16.086Z,22.90
2023-06-28T09:20:49.390Z,22.82
2023-06-28T09:23:23.333Z,22.90
2023-06-28T09:25:51.656Z,22.65
2023-06-28T09:28:18.835Z,22.67
2023-06-28T09:30:51.410Z,22.76
2023-06-28T09:33:18.805Z,22.70
2023-06-28T09:35:45.946Z,22.80
2023-06-28T09:38:13.328Z,22.91
2023-06-28T09:40:39.913Z,23.00
2023-06-28T09:43:15.077Z,23.05
2023-06-28T09:45:41.998Z,23.12
2023-06-28T09:48:08.932Z,23.27
2023-06-28T09:50:37.067Z,23.45
2023-06-28T09:53:03.956Z,23.69
2023-06-28T09:55:30.699Z,24.01
2023-06-28T09:57:58.734Z,23.98
2023-06-28T10:00:28.917Z,24.06
2023-06-28T10:02:59.633Z,24.39
2023-06-28T10:05:27.334Z,24.17
2023-06-28T10:07:55.092Z,23.76
2023-06-28T10:10:22.110Z,23.69
2023-06-28T10:12:51.250Z,23.93
2023-06-28T10:15:22.225Z,23.92
2023-06-28T10:17:51.028Z,23.80
2023-06-28T10:20:17.969Z,23.69
2023-06-28T10:22:44.986Z,23.73
2023-06-28T10:25:12.911Z,23.87
2023-06-28T10:27:40.231Z,24.03
2023-06-28T10:30:08.202Z,24.03
2023-06-28T10:32:36.173Z,24.09
2023-06-28T10:35:07.405Z,24.39
2023-06-28T10:37:34.120Z,24.00
2023-06-28T10:40:00.769Z,23.97
2023-06-28T10:42:38.594Z,23.85
2023-06-28T10:45:06.529Z,23.67
2023-06-28T10:47:34.597Z,23.91
2023-06-28T10:50:11.511Z,24.14
2023-06-28T10:52:46.059Z,24.35
2023-06-28T10:55:12.629Z,24.45
2023-06-28T10:57:40.121Z,24.35
2023-06-28T11:00:09.107Z,24.44
2023-06-28T11:02:52.872Z,24.66
2023-06-28T11:05:39.166Z,25.10
2023-06-28T11:08:10.454Z,25.40
2023-06-28T11:10:38.885Z,25.29
2023-06-28T11:13:08.412Z,25.45
2023-06-28T11:15:36.024Z,25.76
2023-06-28T11:18:16.476Z,25.72
2023-06-28T11:20:50.794Z,26.25
2023-06-28T11:23:30.652Z,26.37
2023-06-28T11:25:58.280Z,26.80
2023-06-28T11:28:29.732Z,26.69
2023-06-28T11:30:56.983Z,26.98
2023-06-28T11:33:23.910Z,27.53
2023-06-28T11:35:52.317Z,27.92
2023-06-28T11:38:19.617Z,28.42
2023-06-28T11:40:47.630Z,28.34
2023-06-28T11:43:14.367Z,28.55
2023-06-28T11:45:41.237Z,28.81
2023-06-28T11:48:10.298Z,29.02
2023-06-28T11:50:37.043Z,28.76
2023-06-28T11:53:05.471Z,28.93
2023-06-28T11:55:32.103Z,28.92
2023-06-28T11:57:58.902Z,29.04
2023-06-28T12:00:38.052Z,29.03
2023-06-28T12:03:04.779Z,28.58
2023-06-28T12:05:31.644Z,29.25
2023-06-28T12:07:58.531Z,29.52
2023-06-28T12:10:33.501Z,29.27
2023-06-28T12:13:00.110Z,29.15
2023-06-28T12:15:26.955Z,29.17
2023-06-28T12:17:53.589Z,29.07
2023-06-28T12:20:23.015Z,28.78
2023-06-28T12:22:49.629Z,28.62
2023-06-28T12:25:27.084Z,28.61
2023-06-28T12:28:01.559Z,28.29
2023-06-28T12:30:28.433Z,28.40
2023-06-28T12:32:57.740Z,28.27
2023-06-28T12:35:25.375Z,28.27
2023-06-28T12:37:56.111Z,27.94
2023-06-28T12:40:23.417Z,27.42
2023-06-28T12:43:13.209Z,27.75
2023-06-28T12:45:44.607Z,27.93
2023-06-28T12:48:11.719Z,27.99
2023-06-28T12:50:38.346Z,27.92
2023-06-28T12:53:05.056Z,28.09
2023-06-28T12:55:31.652Z,28.37
2023-06-28T12:57:58.248Z,28.55
2023-06-28T13:00:26.355Z,28.60
2023-06-28T13:02:53.008Z,28.67
2023-06-28T13:05:19.789Z,28.91
2023-06-28T13:07:46.431Z,29.05
2023-06-28T13:10:13.216Z,29.20
2023-06-28T13:12:39.832Z,29.56
2023-06-28T13:15:07.736Z,29.34
2023-06-28T13:17:35.873Z,28.94
2023-06-28T13:20:03.422Z,29.06
2023-06-28T13:22:30.673Z,29.18
2023-06-28T13:24:57.296Z,29.22
2023-06-28T13:27:23.903Z,29.53
2023-06-28T13:29:50.537Z,29.29
2023-06-28T13:32:17.119Z,29.59
2023-06-28T13:34:45.114Z,29.66
2023-06-28T13:37:26.808Z,29.91
2023-06-28T13:39:54.503Z,30.22
2023-06-28T13:42:21.102Z,30.37
2023-06-28T13:44:47.711Z,29.93
2023-06-28T13:47:14.304Z,29.51
2023-06-28T13:49:40.930Z,29.46
2023-06-28T13:52:09.100Z,29.54
2023-06-28T13:54:35.699Z,29.56
2023-06-28T13:57:02.290Z,29.52
2023-06-28T13:59:28.885Z,29.58
2023-06-28T14:01:55.530Z,29.64
2023-06-28T14:04:22.210Z,29.20
2023-06-28T14:06:48.879Z,28.80
2023-06-28T14:09:16.908Z,28.91
2023-06-28T14:11:43.882Z,29.03
2023-06-28T14:14:10.620Z,29.08
2023-06-28T14:16:37.219Z,29.32
2023-06-28T14:19:03.841Z,29.31
2023-06-28T14:21:30.719Z,29.38
2023-06-28T14:23:57.309Z,29.07
2023-06-28T14:26:25.423Z,28.72
2023-06-28T14:28:52.517Z,29.02
2023-06-28T14:31:19.338Z,29.42
2023-06-28T14:33:46.995Z,29.52
2023-06-28T14:36:13.686Z,29.50
2023-06-28T14:38:40.384Z,29.19
2023-06-28T14:41:07.008Z,29.20
2023-06-28T14:43:34.992Z,29.19
2023-06-28T14:46:01.617Z,29.04
2023-06-28T14:48:28.229Z,28.97
2023-06-28T14:50:55.206Z,28.86
2023-06-28T14:53:21.781Z,28.75
2023-06-28T14:55:48.393Z,28.51
2023-06-28T14:58:15.165Z,28.45
2023-06-28T15:00:43.143Z,28.36
2023-06-28T15:03:09.775Z,28.12
2023-06-28T15:05:36.563Z,28.15
2023-06-28T15:08:03.225Z,27.84
2023-06-28T15:10:29.854Z,27.44
2023-06-28T15:12:56.611Z,27.36
2023-06-28T15:15:23.250Z,27.28
2023-06-28T15:17:51.369Z,27.03
2023-06-28T15:20:30.183Z,27.03
2023-06-28T15:23:05.006Z,26.94
2023-06-28T15:25:31.757Z,26.94
2023-06-28T15:27:58.542Z,26.85
2023-06-28T15:30:25.223Z,26.74
2023-06-28T15:32:53.213Z,26.63
2023-06-28T15:35:20.014Z,26.54
2023-06-28T15:37:46.650Z,26.54
2023-06-28T15:40:14.468Z,26.34
2023-06-28T15:42:41.229Z,26.47
2023-06-28T15:45:08.624Z,26.50
2023-06-28T15:47:35.269Z,26.43
2023-06-28T15:50:03.774Z,26.52
2023-06-28T15:52:30.497Z,26.71
2023-06-28T15:54:58.750Z,26.45
2023-06-28T15:57:25.473Z,26.70
2023-06-28T15:59:52.117Z,26.92
2023-06-28T16:02:18.917Z,26.93
2023-06-28T16:04:45.740Z,26.91
2023-06-28T16:07:13.714Z,26.90
2023-06-28T16:09:40.356Z,26.90
2023-06-28T16:12:08.329Z,27.02
2023-06-28T16:14:35.530Z,27.25
2023-06-28T16:17:04.454Z,27.24
2023-06-28T16:19:31.183Z,27.49
2023-06-28T16:21:57.785Z,27.70
2023-06-28T16:24:25.923Z,27.85
2023-06-28T16:26:52.627Z,27.65
2023-06-28T16:29:19.256Z,27.68
2023-06-28T16:31:45.946Z,27.46
2023-06-28T16:34:12.550Z,27.42
2023-06-28T16:36:39.168Z,27.53
2023-06-28T16:39:05.904Z,27.48
2023-06-28T16:41:33.900Z,27.69
2023-06-28T16:44:00.521Z,27.74
2023-06-28T16:46:27.170Z,27.58
2023-06-28T16:48:53.835Z,27.59
2023-06-28T16:51:20.467Z,27.72
2023-06-28T16:53:47.354Z,27.51
2023-06-28T16:56:14.168Z,27.44
2023-06-28T16:58:42.152Z,27.41
2023-06-28T17:01:08.735Z,27.08
2023-06-28T17:03:35.615Z,27.03
2023-06-28T17:06:02.325Z,27.23
2023-06-28T17:08:28.951Z,27.08
2023-06-28T17:10:55.767Z,27.13
2023-06-28T17:13:22.343Z,27.13
2023-06-28T17:15:50.288Z,27.10
2023-06-28T17:18:17.018Z,27.03
2023-06-28T17:20:43.959Z,26.98
2023-06-28T17:23:10.691Z,26.83
2023-06-28T17:25:37.299Z,26.94
2023-06-28T17:28:04.439Z,27.11
2023-06-28T17:30:31.048Z,27.04
2023-06-28T17:32:59.089Z,26.87
2023-06-28T17:35:25.787Z,26.67
2023-06-28T17:37:52.357Z,26.79
2023-06-28T17:40:19.159Z,26.80
2023-06-28T17:42:45.884Z,26.61
2023-06-28T17:45:12.664Z,26.53
2023-06-28T17:47:39.801Z,26.47
2023-06-28T17:50:09.614Z,26.26
2023-06-28T17:52:36.210Z,25.90
2023-06-28T17:55:02.841Z,25.99
2023-06-28T17:57:29.642Z,26.09
2023-06-28T17:59:56.280Z,25.76
2023-06-28T18:02:22.895Z,25.74
2023-06-28T18:04:49.724Z,25.78
2023-06-28T18:07:17.746Z,25.76
2023-06-28T18:09:44.399Z,25.65
2023-06-28T18:12:11.338Z,25.45
2023-06-28T18:14:38.294Z,25.47
2023-06-28T18:17:05.058Z,25.40
2023-06-28T18:19:31.934Z,25.47
2023-06-28T18:21:58.696Z,25.36
2023-06-28T18:24:26.697Z,25.20
2023-06-28T18:26:53.414Z,24.94
2023-06-28T18:29:20.021Z,24.92
2023-06-28T18:31:46.996Z,24.79
2023-06-28T18:34:13.746Z,24.73
2023-06-28T18:36:40.334Z,24.63
2023-06-28T18:39:07.134Z,24.54
2023-06-28T18:41:38.029Z,24.49
2023-06-28T18:44:04.969Z,24.51
2023-06-28T18:46:31.743Z,24.43
2023-06-28T18:48:58.370Z,24.39
2023-06-28T18:51:25.005Z,24.35
2023-06-28T18:53:51.729Z,24.30
2023-06-28T18:56:18.231Z,24.25
2023-06-28T18:58:46.195Z,24.24
2023-06-28T19:01:12.859Z,24.12
2023-06-28T19:03:39.585Z,24.11
2023-06-28T19:06:06.232Z,24.03
2023-06-28T19:08:32.974Z,24.03
2023-06-28T19:11:00.722Z,24.06
2023-06-28T19:13:27.334Z,23.99
2023-06-28T19:15:55.282Z,23.94
2023-06-28T19:18:22.876Z,23.90
2023-06-28T19:20:49.496Z,23.91
2023-06-28T19:23:16.290Z,23.79
2023-06-28T19:25:45.730Z,23.80
2023-06-28T19:28:12.340Z,23.79
2023-06-28T19:30:39.096Z,23.76
2023-06-28T19:33:13.216Z,23.73
2023-06-28T19:35:39.832Z,23.70
2023-06-28T19:38:06.448Z,23.67
2023-06-28T19:40:33.121Z,23.65
2023-06-28T19:42:59.850Z,23.62
2023-06-28T19:45:26.630Z,23.60
2023-06-28T19:47:53.285Z,23.60
2023-06-28T19:50:21.445Z,23.55
2023-06-28T19:52:48.349Z,23.47
2023-06-28T19:55:15.578Z,23.40
2023-06-28T19:57:42.158Z,23.41
2023-06-28T20:00:09.876Z,23.36
2023-06-28T20:02:36.598Z,23.37
2023-06-28T20:05:03.622Z,23.22
2023-06-28T20:07:31.899Z,23.25
2023-06-28T20:10:03.691Z,23.17
2023-06-28T20:12:34.155Z,23.14
2023-06-28T20:15:00.787Z,23.19
2023-06-28T20:17:27.613Z,23.19
2023-06-28T20:19:54.227Z,23.17
2023-06-28T20:22:20.990Z,23.23
2023-06-28T20:24:48.936Z,23.15
2023-06-28T20:27:15.570Z,23.11
2023-06-28T20:29:42.188Z,23.15
2023-06-28T20:32:09.265Z,23.11
2023-06-28T20:34:36.065Z,23.11
2023-06-28T20:37:02.681Z,23.16
2023-06-28T20:39:29.292Z,23.09
2023-06-28T20:41:57.378Z,23.10
2023-06-28T20:44:24.041Z,23.05
2023-06-28T20:46:50.801Z,23.10
2023-06-28T20:49:17.601Z,23.07
2023-06-28T20:51:44.225Z,23.03
2023-06-28T20:54:10.848Z,22.94
2023-06-28T20:56:40.735Z,22.91
2023-06-28T20:59:08.681Z,22.94
2023-06-28T21:01:35.497Z,22.95
2023-06-28T21:04:02.126Z,22.98
2023-06-28T21:06:28.747Z,22.97
2023-06-28T21:08:55.335Z,22.97
2023-06-28T21:11:22.172Z,22.97
2023-06-28T21:13:48.769Z,22.96
2023-06-28T21:16:16.735Z,22.94
2023-06-28T21:18:43.389Z,23.02
2023-06-28T21:21:10.039Z,22.94
2023-06-28T21:23:36.666Z,22.85
2023-06-28T21:26:03.319Z,22.90
2023-06-28T21:28:29.938Z,22.90
2023-06-28T21:30:56.525Z,22.84
2023-06-28T21:33:24.539Z,22.81
2023-06-28T21:35:51.149Z,22.84
2023-06-28T21:38:17.769Z,22.79
2023-06-28T21:40:44.369Z,22.86
2023-06-28T21:43:10.987Z,22.89
2023-06-28T21:45:37.578Z,22.90
2023-06-28T21:48:04.606Z,22.89
2023-06-28T21:50:32.735Z,22.90
2023-06-28T21:52:59.566Z,22.82
2023-06-28T21:55:26.377Z,22.81
2023-06-28T21:57:52.956Z,22.77
2023-06-28T22:00:21.557Z,22.88
2023-06-28T22:02:48.459Z,22.89
2023-06-28T22:05:15.178Z,22.79
2023-06-28T22:07:43.668Z,22.69
2023-06-28T22:10:10.991Z,22.66
2023-06-28T22:12:38.241Z,22.66
2023-06-28T22:15:05.864Z,22.58
2023-06-28T22:17:32.829Z,22.64
2023-06-28T22:19:59.549Z,22.60
2023-06-28T22:22:26.429Z,22.60
2023-06-28T22:24:54.559Z,22.60
2023-06-28T22:27:21.155Z,22.57
2023-06-28T22:29:47.746Z,22.60
2023-06-28T22:32:14.651Z,22.68
2023-06-28T22:34:41.252Z,22.61
2023-06-28T22:37:07.849Z,22.50
2023-06-28T22:39:34.946Z,22.52
2023-06-28T22:42:03.243Z,22.57
2023-06-28T22:44:29.968Z,22.60
2023-06-28T22:46:56.554Z,22.58
2023-06-28T22:49:23.375Z,22.55
2023-06-28T22:51:49.968Z,22.55
2023-06-28T22:54:25.094Z,22.58
2023-06-28T22:56:51.704Z,22.62
2023-06-28T22:59:20.208Z,22.69
2023-06-28T23:01:47.493Z,22.60
2023-06-28T23:04:14.142Z,22.55
2023-06-28T23:06:40.760Z,22.56
2023-06-28T23:09:07.565Z,22.60
2023-06-28T23:11:34.193Z,22.59
2023-06-28T23:14:00.821Z,22.65
2023-06-28T23:16:28.932Z,22.54
2023-06-28T23:18:55.766Z,22.47
2023-06-28T23:21:22.932Z,22.32
2023-06-28T23:23:49.569Z,22.44
2023-06-28T23:26:16.380Z,22.42
2023-06-28T23:28:42.963Z,22.51
2023-06-28T23:31:09.659Z,22.47
2023-06-28T23:33:39.826Z,22.33
2023-06-28T23:36:06.710Z,22.35
2023-06-28T23:38:33.331Z,22.35
2023-06-28T23:41:00.072Z,22.37
2023-06-28T23:43:26.834Z,22.34
2023-06-28T23:45:53.469Z,22.31
2023-06-28T23:48:20.067Z,22.41
2023-06-28T23:50:48.185Z,22.35
2023-06-28T23:53:14.980Z,22.34
2023-06-28T23:55:42.043Z,22.34
2023-06-28T23:58:08.797Z,22.38
